sensor_id;sensor_type;location;lat;lon;timestamp;P1;durP1;ratioP1;P2;durP2;ratioP2
58238;SDS011;44037;55.638;37.356;2023-08-17T00:00:01;15.23;;;10.68;;
58238;SDS011;44037;55.638;37.356;2023-08-17T00:02:34;21.92;;;9.55;;
58238;SDS011;44037;55.638;37.356;2023-08-17T00:05:01;15.20;;;10.57;;
58238;SDS011;44037;55.638;37.356;2023-08-17T00:07:29;17.95;;;10.02;;
58238;SDS011;44037;55.638;37.356;2023-08-17T00:09:56;18.35;;;10.77;;
58238;SDS011;44037;55.638;37.356;2023-08-17T00:12:24;17.48;;;10.07;;
58238;SDS011;44037;55.638;37.356;2023-08-17T00:14:52;17.23;;;11.32;;
58238;SDS011;44037;55.638;37.356;2023-08-17T00:17:19;23.15;;;11.50;;
58238;SDS011;44037;55.638;37.356;2023-08-17T00:19:48;20.17;;;12.00;;
58238;SDS011;44037;55.638;37.356;2023-08-17T00:22:15;26.88;;;13.65;;
58238;SDS011;44037;55.638;37.356;2023-08-17T00:24:42;17.80;;;11.57;;
58238;SDS011;44037;55.638;37.356;2023-08-17T00:27:10;18.13;;;11.70;;
58238;SDS011;44037;55.638;37.356;2023-08-17T00:29:37;18.80;;;12.68;;
58238;SDS011;44037;55.638;37.356;2023-08-17T00:32:04;21.13;;;11.60;;
58238;SDS011;44037;55.638;37.356;2023-08-17T00:34:31;21.30;;;12.63;;
58238;SDS011;44037;55.638;37.356;2023-08-17T00:37:00;19.92;;;12.98;;
58238;SDS011;44037;55.638;37.356;2023-08-17T00:39:27;22.75;;;12.45;;
58238;SDS011;44037;55.638;37.356;2023-08-17T00:41:54;20.30;;;12.40;;
58238;SDS011;44037;55.638;37.356;2023-08-17T00:44:21;20.30;;;12.55;;
58238;SDS011;44037;55.638;37.356;2023-08-17T00:46:48;19.85;;;12.73;;
58238;SDS011;44037;55.638;37.356;2023-08-17T00:49:15;21.70;;;13.68;;
58238;SDS011;44037;55.638;37.356;2023-08-17T00:51:42;19.20;;;13.07;;
58238;SDS011;44037;55.638;37.356;2023-08-17T00:54:11;25.63;;;14.82;;
58238;SDS011;44037;55.638;37.356;2023-08-17T00:56:39;22.42;;;14.10;;
58238;SDS011;44037;55.638;37.356;2023-08-17T00:59:07;20.35;;;14.05;;
58238;SDS011;44037;55.638;37.356;2023-08-17T01:01:34;24.27;;;13.05;;
58238;SDS011;44037;55.638;37.356;2023-08-17T01:04:01;19.88;;;13.50;;
58238;SDS011;44037;55.638;37.356;2023-08-17T01:06:28;22.58;;;14.90;;
58238;SDS011;44037;55.638;37.356;2023-08-17T01:08:55;21.02;;;15.25;;
58238;SDS011;44037;55.638;37.356;2023-08-17T01:11:25;25.10;;;15.70;;
58238;SDS011;44037;55.638;37.356;2023-08-17T01:13:58;21.60;;;15.95;;
58238;SDS011;44037;55.638;37.356;2023-08-17T01:16:31;21.63;;;15.60;;
58238;SDS011;44037;55.638;37.356;2023-08-17T01:19:01;24.88;;;17.20;;
58238;SDS011;44037;55.638;37.356;2023-08-17T01:21:35;22.08;;;15.85;;
58238;SDS011;44037;55.638;37.356;2023-08-17T01:24:09;26.20;;;15.50;;
58238;SDS011;44037;55.638;37.356;2023-08-17T01:26:37;21.30;;;16.55;;
58238;SDS011;44037;55.638;37.356;2023-08-17T01:29:04;26.23;;;16.75;;
58238;SDS011;44037;55.638;37.356;2023-08-17T01:31:33;26.15;;;17.30;;
58238;SDS011;44037;55.638;37.356;2023-08-17T01:34:04;26.65;;;16.80;;
58238;SDS011;44037;55.638;37.356;2023-08-17T01:36:35;22.02;;;15.98;;
58238;SDS011;44037;55.638;37.356;2023-08-17T01:39:06;23.35;;;15.15;;
58238;SDS011;44037;55.638;37.356;2023-08-17T01:41:36;22.10;;;15.10;;
58238;SDS011;44037;55.638;37.356;2023-08-17T01:44:05;24.13;;;15.50;;
58238;SDS011;44037;55.638;37.356;2023-08-17T01:46:32;23.02;;;16.63;;
58238;SDS011;44037;55.638;37.356;2023-08-17T01:49:00;26.58;;;16.08;;
58238;SDS011;44037;55.638;37.356;2023-08-17T01:51:27;30.92;;;16.02;;
58238;SDS011;44037;55.638;37.356;2023-08-17T01:53:54;24.65;;;16.23;;
58238;SDS011;44037;55.638;37.356;2023-08-17T01:56:21;27.55;;;16.88;;
58238;SDS011;44037;55.638;37.356;2023-08-17T01:58:50;26.33;;;17.80;;
58238;SDS011;44037;55.638;37.356;2023-08-17T02:01:16;25.40;;;17.50;;
58238;SDS011;44037;55.638;37.356;2023-08-17T02:03:43;24.33;;;16.23;;
58238;SDS011;44037;55.638;37.356;2023-08-17T02:06:10;24.20;;;17.00;;
58238;SDS011;44037;55.638;37.356;2023-08-17T02:08:38;22.77;;;16.35;;
58238;SDS011;44037;55.638;37.356;2023-08-17T02:11:05;26.25;;;16.48;;
58238;SDS011;44037;55.638;37.356;2023-08-17T02:13:32;23.38;;;16.67;;
58238;SDS011;44037;55.638;37.356;2023-08-17T02:16:01;25.58;;;17.45;;
58238;SDS011;44037;55.638;37.356;2023-08-17T02:18:48;32.60;;;18.25;;
58238;SDS011;44037;55.638;37.356;2023-08-17T02:21:15;28.98;;;16.55;;
58238;SDS011;44037;55.638;37.356;2023-08-17T02:23:42;30.08;;;19.10;;
58238;SDS011;44037;55.638;37.356;2023-08-17T02:26:09;26.20;;;17.38;;
58238;SDS011;44037;55.638;37.356;2023-08-17T02:28:36;24.40;;;16.08;;
58238;SDS011;44037;55.638;37.356;2023-08-17T02:31:04;21.95;;;14.85;;
58238;SDS011;44037;55.638;37.356;2023-08-17T02:33:32;21.75;;;15.57;;
58238;SDS011;44037;55.638;37.356;2023-08-17T02:36:00;24.27;;;15.73;;
58238;SDS011;44037;55.638;37.356;2023-08-17T02:38:27;26.02;;;15.75;;
58238;SDS011;44037;55.638;37.356;2023-08-17T02:40:54;26.10;;;16.80;;
58238;SDS011;44037;55.638;37.356;2023-08-17T02:43:21;21.17;;;14.65;;
58238;SDS011;44037;55.638;37.356;2023-08-17T02:45:48;22.73;;;15.90;;
58238;SDS011;44037;55.638;37.356;2023-08-17T02:48:16;25.33;;;16.48;;
58238;SDS011;44037;55.638;37.356;2023-08-17T02:50:44;27.10;;;16.42;;
58238;SDS011;44037;55.638;37.356;2023-08-17T02:53:11;27.58;;;17.42;;
58238;SDS011;44037;55.638;37.356;2023-08-17T02:55:38;23.92;;;17.45;;
58238;SDS011;44037;55.638;37.356;2023-08-17T02:58:05;27.80;;;17.77;;
58238;SDS011;44037;55.638;37.356;2023-08-17T03:00:32;23.67;;;17.48;;
58238;SDS011;44037;55.638;37.356;2023-08-17T03:02:59;26.08;;;15.85;;
58238;SDS011;44037;55.638;37.356;2023-08-17T03:05:28;24.70;;;16.15;;
58238;SDS011;44037;55.638;37.356;2023-08-17T03:07:55;25.17;;;16.20;;
58238;SDS011;44037;55.638;37.356;2023-08-17T03:10:22;23.02;;;14.55;;
58238;SDS011;44037;55.638;37.356;2023-08-17T03:12:50;23.23;;;15.40;;
58238;SDS011;44037;55.638;37.356;2023-08-17T03:15:17;24.30;;;14.77;;
58238;SDS011;44037;55.638;37.356;2023-08-17T03:17:44;22.98;;;15.65;;
58238;SDS011;44037;55.638;37.356;2023-08-17T03:20:11;30.02;;;16.60;;
58238;SDS011;44037;55.638;37.356;2023-08-17T03:22:39;31.95;;;15.70;;
58238;SDS011;44037;55.638;37.356;2023-08-17T03:25:07;29.33;;;15.85;;
58238;SDS011;44037;55.638;37.356;2023-08-17T03:27:35;25.17;;;16.73;;
58238;SDS011;44037;55.638;37.356;2023-08-17T03:30:02;24.45;;;15.65;;
58238;SDS011;44037;55.638;37.356;2023-08-17T03:32:31;29.75;;;17.60;;
58238;SDS011;44037;55.638;37.356;2023-08-17T03:34:58;27.17;;;17.05;;
58238;SDS011;44037;55.638;37.356;2023-08-17T03:37:25;27.13;;;16.73;;
58238;SDS011;44037;55.638;37.356;2023-08-17T03:39:53;22.65;;;16.50;;
58238;SDS011;44037;55.638;37.356;2023-08-17T03:42:20;29.15;;;17.38;;
58238;SDS011;44037;55.638;37.356;2023-08-17T03:44:47;25.77;;;16.33;;
58238;SDS011;44037;55.638;37.356;2023-08-17T03:47:14;31.40;;;18.92;;
58238;SDS011;44037;55.638;37.356;2023-08-17T03:49:41;28.05;;;18.63;;
58238;SDS011;44037;55.638;37.356;2023-08-17T03:52:08;21.45;;;17.48;;
58238;SDS011;44037;55.638;37.356;2023-08-17T03:54:35;29.42;;;17.95;;
58238;SDS011;44037;55.638;37.356;2023-08-17T03:57:04;28.40;;;18.35;;
58238;SDS011;44037;55.638;37.356;2023-08-17T03:59:31;24.23;;;17.20;;
58238;SDS011;44037;55.638;37.356;2023-08-17T04:01:58;32.60;;;18.70;;
58238;SDS011;44037;55.638;37.356;2023-08-17T04:04:25;30.88;;;19.23;;
58238;SDS011;44037;55.638;37.356;2023-08-17T04:06:52;24.17;;;16.13;;
58238;SDS011;44037;55.638;37.356;2023-08-17T04:09:20;21.73;;;16.38;;
58238;SDS011;44037;55.638;37.356;2023-08-17T04:11:47;25.30;;;16.80;;
58238;SDS011;44037;55.638;37.356;2023-08-17T04:14:15;27.00;;;17.27;;
58238;SDS011;44037;55.638;37.356;2023-08-17T04:16:42;24.38;;;16.30;;
58238;SDS011;44037;55.638;37.356;2023-08-17T04:19:09;21.98;;;17.25;;
58238;SDS011;44037;55.638;37.356;2023-08-17T04:21:36;22.05;;;16.30;;
58238;SDS011;44037;55.638;37.356;2023-08-17T04:24:04;25.45;;;16.60;;
58238;SDS011;44037;55.638;37.356;2023-08-17T04:26:31;22.52;;;16.13;;
58238;SDS011;44037;55.638;37.356;2023-08-17T04:28:58;29.70;;;16.48;;
58238;SDS011;44037;55.638;37.356;2023-08-17T04:31:27;21.90;;;16.75;;
58238;SDS011;44037;55.638;37.356;2023-08-17T04:33:54;28.83;;;19.27;;
58238;SDS011;44037;55.638;37.356;2023-08-17T04:36:21;33.38;;;19.92;;
58238;SDS011;44037;55.638;37.356;2023-08-17T04:38:48;30.58;;;19.85;;
58238;SDS011;44037;55.638;37.356;2023-08-17T04:41:15;28.20;;;19.15;;
58238;SDS011;44037;55.638;37.356;2023-08-17T04:43:42;24.63;;;17.92;;
58238;SDS011;44037;55.638;37.356;2023-08-17T04:46:11;26.27;;;17.65;;
58238;SDS011;44037;55.638;37.356;2023-08-17T04:48:40;23.55;;;15.60;;
58238;SDS011;44037;55.638;37.356;2023-08-17T04:51:07;24.25;;;16.67;;
58238;SDS011;44037;55.638;37.356;2023-08-17T04:53:34;24.27;;;16.40;;
58238;SDS011;44037;55.638;37.356;2023-08-17T04:56:02;23.00;;;16.27;;
58238;SDS011;44037;55.638;37.356;2023-08-17T04:58:29;21.65;;;16.10;;
58238;SDS011;44037;55.638;37.356;2023-08-17T05:00:56;21.30;;;15.35;;
58238;SDS011;44037;55.638;37.356;2023-08-17T05:03:23;21.92;;;14.73;;
58238;SDS011;44037;55.638;37.356;2023-08-17T05:05:52;20.30;;;14.63;;
58238;SDS011;44037;55.638;37.356;2023-08-17T05:08:19;21.67;;;15.48;;
58238;SDS011;44037;55.638;37.356;2023-08-17T05:10:47;19.77;;;13.43;;
58238;SDS011;44037;55.638;37.356;2023-08-17T05:13:14;22.92;;;13.57;;
58238;SDS011;44037;55.638;37.356;2023-08-17T05:15:41;18.35;;;12.68;;
58238;SDS011;44037;55.638;37.356;2023-08-17T05:18:08;13.85;;;11.02;;
58238;SDS011;44037;55.638;37.356;2023-08-17T05:20:36;16.10;;;10.65;;
58238;SDS011;44037;55.638;37.356;2023-08-17T05:23:05;23.58;;;11.90;;
58238;SDS011;44037;55.638;37.356;2023-08-17T05:25:32;16.40;;;11.15;;
58238;SDS011;44037;55.638;37.356;2023-08-17T05:27:59;18.30;;;11.00;;
58238;SDS011;44037;55.638;37.356;2023-08-17T05:30:26;12.63;;;10.20;;
58238;SDS011;44037;55.638;37.356;2023-08-17T05:32:53;16.75;;;10.63;;
58238;SDS011;44037;55.638;37.356;2023-08-17T05:35:20;13.57;;;9.27;;
58238;SDS011;44037;55.638;37.356;2023-08-17T05:37:47;12.75;;;7.78;;
58238;SDS011;44037;55.638;37.356;2023-08-17T05:40:16;10.85;;;8.20;;
58238;SDS011;44037;55.638;37.356;2023-08-17T05:42:44;11.13;;;7.05;;
58238;SDS011;44037;55.638;37.356;2023-08-17T05:45:11;7.72;;;6.95;;
58238;SDS011;44037;55.638;37.356;2023-08-17T05:47:39;10.40;;;7.38;;
58238;SDS011;44037;55.638;37.356;2023-08-17T05:50:06;12.52;;;8.27;;
58238;SDS011;44037;55.638;37.356;2023-08-17T05:52:34;9.63;;;7.35;;
58238;SDS011;44037;55.638;37.356;2023-08-17T05:55:01;9.50;;;5.20;;
58238;SDS011;44037;55.638;37.356;2023-08-17T05:57:30;10.43;;;6.20;;
58238;SDS011;44037;55.638;37.356;2023-08-17T05:59:57;10.68;;;5.60;;
58238;SDS011;44037;55.638;37.356;2023-08-17T06:02:24;10.35;;;6.25;;
58238;SDS011;44037;55.638;37.356;2023-08-17T06:04:51;26.65;;;20.00;;
58238;SDS011;44037;55.638;37.356;2023-08-17T06:07:18;7.97;;;6.32;;
58238;SDS011;44037;55.638;37.356;2023-08-17T06:09:45;6.53;;;5.53;;
58238;SDS011;44037;55.638;37.356;2023-08-17T06:12:12;9.07;;;4.43;;
58238;SDS011;44037;55.638;37.356;2023-08-17T06:14:41;6.40;;;4.68;;
58238;SDS011;44037;55.638;37.356;2023-08-17T06:17:08;8.18;;;4.28;;
58238;SDS011;44037;55.638;37.356;2023-08-17T06:19:35;4.22;;;3.70;;
58238;SDS011;44037;55.638;37.356;2023-08-17T06:22:02;7.30;;;4.50;;
58238;SDS011;44037;55.638;37.356;2023-08-17T06:24:29;7.70;;;4.88;;
58238;SDS011;44037;55.638;37.356;2023-08-17T06:26:56;5.32;;;4.45;;
58238;SDS011;44037;55.638;37.356;2023-08-17T06:29:23;7.43;;;5.30;;
58238;SDS011;44037;55.638;37.356;2023-08-17T06:31:51;8.10;;;4.82;;
58238;SDS011;44037;55.638;37.356;2023-08-17T06:34:18;8.77;;;5.70;;
58238;SDS011;44037;55.638;37.356;2023-08-17T06:36:56;10.23;;;5.63;;
58238;SDS011;44037;55.638;37.356;2023-08-17T06:39:24;11.27;;;5.93;;
58238;SDS011;44037;55.638;37.356;2023-08-17T06:41:51;6.63;;;5.28;;
58238;SDS011;44037;55.638;37.356;2023-08-17T06:44:18;8.70;;;5.55;;
58238;SDS011;44037;55.638;37.356;2023-08-17T06:46:46;7.72;;;4.72;;
58238;SDS011;44037;55.638;37.356;2023-08-17T06:49:14;6.53;;;4.82;;
58238;SDS011;44037;55.638;37.356;2023-08-17T06:51:41;8.13;;;5.25;;
58238;SDS011;44037;55.638;37.356;2023-08-17T06:54:08;8.43;;;5.05;;
58238;SDS011;44037;55.638;37.356;2023-08-17T06:56:35;8.10;;;4.72;;
58238;SDS011;44037;55.638;37.356;2023-08-17T06:59:02;5.60;;;5.07;;
58238;SDS011;44037;55.638;37.356;2023-08-17T07:01:30;5.57;;;4.65;;
58238;SDS011;44037;55.638;37.356;2023-08-17T07:03:57;8.20;;;5.60;;
58238;SDS011;44037;55.638;37.356;2023-08-17T07:06:25;9.48;;;5.45;;
58238;SDS011;44037;55.638;37.356;2023-08-17T07:08:54;5.50;;;4.50;;
58238;SDS011;44037;55.638;37.356;2023-08-17T07:11:21;9.73;;;7.63;;
58238;SDS011;44037;55.638;37.356;2023-08-17T07:13:49;7.70;;;4.55;;
58238;SDS011;44037;55.638;37.356;2023-08-17T07:16:16;7.75;;;4.20;;
58238;SDS011;44037;55.638;37.356;2023-08-17T07:18:43;5.53;;;4.93;;
58238;SDS011;44037;55.638;37.356;2023-08-17T07:21:10;10.05;;;6.65;;
58238;SDS011;44037;55.638;37.356;2023-08-17T07:23:39;5.70;;;4.15;;
58238;SDS011;44037;55.638;37.356;2023-08-17T07:26:06;8.27;;;4.15;;
58238;SDS011;44037;55.638;37.356;2023-08-17T07:28:33;6.25;;;4.13;;
58238;SDS011;44037;55.638;37.356;2023-08-17T07:31:00;6.60;;;4.05;;
58238;SDS011;44037;55.638;37.356;2023-08-17T07:33:27;5.38;;;3.88;;
58238;SDS011;44037;55.638;37.356;2023-08-17T07:35:54;9.00;;;5.57;;
58238;SDS011;44037;55.638;37.356;2023-08-17T07:38:23;6.82;;;4.13;;
58238;SDS011;44037;55.638;37.356;2023-08-17T07:40:52;5.63;;;4.00;;
58238;SDS011;44037;55.638;37.356;2023-08-17T07:43:19;4.38;;;3.28;;
58238;SDS011;44037;55.638;37.356;2023-08-17T07:45:46;3.83;;;3.35;;
58238;SDS011;44037;55.638;37.356;2023-08-17T07:48:19;4.93;;;3.30;;
58238;SDS011;44037;55.638;37.356;2023-08-17T07:50:47;5.53;;;3.30;;
58238;SDS011;44037;55.638;37.356;2023-08-17T07:53:15;5.35;;;3.45;;
58238;SDS011;44037;55.638;37.356;2023-08-17T07:55:42;6.28;;;3.85;;
58238;SDS011;44037;55.638;37.356;2023-08-17T07:58:10;4.75;;;3.90;;
58238;SDS011;44037;55.638;37.356;2023-08-17T08:00:41;5.97;;;4.10;;
58238;SDS011;44037;55.638;37.356;2023-08-17T08:03:08;7.60;;;3.88;;
58238;SDS011;44037;55.638;37.356;2023-08-17T08:05:35;6.47;;;4.10;;
58238;SDS011;44037;55.638;37.356;2023-08-17T08:08:02;10.07;;;4.60;;
58238;SDS011;44037;55.638;37.356;2023-08-17T08:10:30;19.17;;;14.10;;
58238;SDS011;44037;55.638;37.356;2023-08-17T08:12:56;7.03;;;4.57;;
58238;SDS011;44037;55.638;37.356;2023-08-17T08:15:25;10.82;;;5.55;;
58238;SDS011;44037;55.638;37.356;2023-08-17T08:17:52;9.18;;;5.00;;
58238;SDS011;44037;55.638;37.356;2023-08-17T08:20:19;12.30;;;4.88;;
58238;SDS011;44037;55.638;37.356;2023-08-17T08:22:47;8.75;;;4.68;;
58238;SDS011;44037;55.638;37.356;2023-08-17T08:25:14;7.45;;;4.40;;
58238;SDS011;44037;55.638;37.356;2023-08-17T08:27:41;7.10;;;4.50;;
58238;SDS011;44037;55.638;37.356;2023-08-17T08:30:08;7.57;;;4.35;;
58238;SDS011;44037;55.638;37.356;2023-08-17T08:32:37;9.35;;;6.15;;
58238;SDS011;44037;55.638;37.356;2023-08-17T08:35:04;7.95;;;4.80;;
58238;SDS011;44037;55.638;37.356;2023-08-17T08:37:32;9.07;;;4.78;;
58238;SDS011;44037;55.638;37.356;2023-08-17T08:39:59;7.07;;;3.95;;
58238;SDS011;44037;55.638;37.356;2023-08-17T08:42:27;7.65;;;4.50;;
58238;SDS011;44037;55.638;37.356;2023-08-17T08:44:54;9.05;;;4.80;;
58238;SDS011;44037;55.638;37.356;2023-08-17T08:47:21;8.20;;;4.75;;
58238;SDS011;44037;55.638;37.356;2023-08-17T08:49:53;7.28;;;4.53;;
58238;SDS011;44037;55.638;37.356;2023-08-17T08:52:28;9.73;;;4.60;;
58238;SDS011;44037;55.638;37.356;2023-08-17T08:55:00;7.32;;;4.55;;
58238;SDS011;44037;55.638;37.356;2023-08-17T08:57:33;7.80;;;5.10;;
58238;SDS011;44037;55.638;37.356;2023-08-17T09:00:01;32.30;;;24.30;;
58238;SDS011;44037;55.638;37.356;2023-08-17T09:02:30;8.50;;;4.15;;
58238;SDS011;44037;55.638;37.356;2023-08-17T09:05:01;7.38;;;3.85;;
58238;SDS011;44037;55.638;37.356;2023-08-17T09:07:30;5.55;;;4.25;;
58238;SDS011;44037;55.638;37.356;2023-08-17T09:09:57;7.70;;;3.97;;
58238;SDS011;44037;55.638;37.356;2023-08-17T09:12:24;8.68;;;3.63;;
58238;SDS011;44037;55.638;37.356;2023-08-17T09:14:52;8.43;;;4.53;;
58238;SDS011;44037;55.638;37.356;2023-08-17T09:17:22;8.70;;;4.93;;
58238;SDS011;44037;55.638;37.356;2023-08-17T09:19:50;7.35;;;5.07;;
58238;SDS011;44037;55.638;37.356;2023-08-17T09:22:23;7.50;;;4.32;;
58238;SDS011;44037;55.638;37.356;2023-08-17T09:24:50;7.78;;;5.10;;
58238;SDS011;44037;55.638;37.356;2023-08-17T09:27:17;8.02;;;4.97;;
58238;SDS011;44037;55.638;37.356;2023-08-17T09:29:44;6.38;;;4.32;;
58238;SDS011;44037;55.638;37.356;2023-08-17T09:32:14;7.78;;;3.90;;
58238;SDS011;44037;55.638;37.356;2023-08-17T09:34:42;5.65;;;4.10;;
58238;SDS011;44037;55.638;37.356;2023-08-17T09:37:11;9.90;;;4.25;;
58238;SDS011;44037;55.638;37.356;2023-08-17T09:39:40;8.27;;;3.50;;
58238;SDS011;44037;55.638;37.356;2023-08-17T09:42:07;6.03;;;4.25;;
58238;SDS011;44037;55.638;37.356;2023-08-17T09:44:37;6.90;;;3.95;;
58238;SDS011;44037;55.638;37.356;2023-08-17T09:47:04;9.68;;;4.20;;
58238;SDS011;44037;55.638;37.356;2023-08-17T09:49:32;6.15;;;4.85;;
58238;SDS011;44037;55.638;37.356;2023-08-17T09:51:59;6.60;;;4.40;;
58238;SDS011;44037;55.638;37.356;2023-08-17T09:54:29;7.82;;;4.78;;
58238;SDS011;44037;55.638;37.356;2023-08-17T09:56:59;11.25;;;7.03;;
58238;SDS011;44037;55.638;37.356;2023-08-17T09:59:26;7.55;;;4.60;;
58238;SDS011;44037;55.638;37.356;2023-08-17T10:01:53;9.45;;;4.90;;
58238;SDS011;44037;55.638;37.356;2023-08-17T10:04:23;6.65;;;4.50;;
58238;SDS011;44037;55.638;37.356;2023-08-17T10:06:51;7.63;;;4.15;;
58238;SDS011;44037;55.638;37.356;2023-08-17T10:09:34;7.13;;;4.03;;
58238;SDS011;44037;55.638;37.356;2023-08-17T10:12:09;10.70;;;3.75;;
58238;SDS011;44037;55.638;37.356;2023-08-17T10:14:39;5.53;;;4.00;;
58238;SDS011;44037;55.638;37.356;2023-08-17T10:17:13;7.85;;;3.80;;
58238;SDS011;44037;55.638;37.356;2023-08-17T10:19:46;10.50;;;5.10;;
58238;SDS011;44037;55.638;37.356;2023-08-17T10:22:19;9.43;;;4.75;;
58238;SDS011;44037;55.638;37.356;2023-08-17T10:24:49;5.53;;;4.35;;
58238;SDS011;44037;55.638;37.356;2023-08-17T10:27:20;8.40;;;5.30;;
58238;SDS011;44037;55.638;37.356;2023-08-17T10:29:47;9.32;;;4.95;;
58238;SDS011;44037;55.638;37.356;2023-08-17T10:32:17;8.20;;;4.38;;
58238;SDS011;44037;55.638;37.356;2023-08-17T10:34:45;5.68;;;3.92;;
58238;SDS011;44037;55.638;37.356;2023-08-17T10:37:12;10.80;;;4.25;;
58238;SDS011;44037;55.638;37.356;2023-08-17T10:39:44;6.00;;;4.00;;
58238;SDS011;44037;55.638;37.356;2023-08-17T10:42:12;4.55;;;3.67;;
58238;SDS011;44037;55.638;37.356;2023-08-17T10:44:42;5.43;;;3.90;;
58238;SDS011;44037;55.638;37.356;2023-08-17T10:47:20;8.25;;;4.35;;
58238;SDS011;44037;55.638;37.356;2023-08-17T10:49:48;6.22;;;4.10;;
58238;SDS011;44037;55.638;37.356;2023-08-17T10:52:19;4.28;;;3.83;;
58238;SDS011;44037;55.638;37.356;2023-08-17T10:54:52;8.55;;;4.10;;
58238;SDS011;44037;55.638;37.356;2023-08-17T10:57:30;6.32;;;3.72;;
58238;SDS011;44037;55.638;37.356;2023-08-17T11:00:06;7.47;;;4.55;;
58238;SDS011;44037;55.638;37.356;2023-08-17T11:02:36;48.47;;;37.88;;
58238;SDS011;44037;55.638;37.356;2023-08-17T11:05:04;10.00;;;4.70;;
58238;SDS011;44037;55.638;37.356;2023-08-17T11:07:38;6.82;;;4.63;;
58238;SDS011;44037;55.638;37.356;2023-08-17T11:10:10;7.78;;;5.25;;
58238;SDS011;44037;55.638;37.356;2023-08-17T11:12:40;9.85;;;4.50;;
58238;SDS011;44037;55.638;37.356;2023-08-17T11:15:09;6.05;;;3.80;;
58238;SDS011;44037;55.638;37.356;2023-08-17T11:17:37;7.25;;;4.72;;
58238;SDS011;44037;55.638;37.356;2023-08-17T11:20:04;7.65;;;4.57;;
58238;SDS011;44037;55.638;37.356;2023-08-17T11:22:34;8.73;;;4.22;;
58238;SDS011;44037;55.638;37.356;2023-08-17T11:25:01;6.13;;;3.80;;
58238;SDS011;44037;55.638;37.356;2023-08-17T11:27:30;5.75;;;3.67;;
58238;SDS011;44037;55.638;37.356;2023-08-17T11:29:57;5.82;;;4.75;;
58238;SDS011;44037;55.638;37.356;2023-08-17T11:32:25;7.45;;;4.32;;
58238;SDS011;44037;55.638;37.356;2023-08-17T11:34:52;5.03;;;4.38;;
58238;SDS011;44037;55.638;37.356;2023-08-17T11:37:20;6.15;;;3.88;;
58238;SDS011;44037;55.638;37.356;2023-08-17T11:39:49;5.00;;;3.50;;
58238;SDS011;44037;55.638;37.356;2023-08-17T11:42:16;7.07;;;4.43;;
58238;SDS011;44037;55.638;37.356;2023-08-17T11:44:43;6.93;;;4.47;;
58238;SDS011;44037;55.638;37.356;2023-08-17T11:47:11;8.45;;;3.63;;
58238;SDS011;44037;55.638;37.356;2023-08-17T11:49:38;5.85;;;3.63;;
58238;SDS011;44037;55.638;37.356;2023-08-17T11:52:08;5.32;;;3.80;;
58238;SDS011;44037;55.638;37.356;2023-08-17T11:54:39;6.45;;;4.57;;
58238;SDS011;44037;55.638;37.356;2023-08-17T11:57:07;42.92;;;33.50;;
58238;SDS011;44037;55.638;37.356;2023-08-17T11:59:34;4.55;;;4.05;;
58238;SDS011;44037;55.638;37.356;2023-08-17T12:02:01;5.57;;;4.72;;
58238;SDS011;44037;55.638;37.356;2023-08-17T12:04:28;5.25;;;3.88;;
58238;SDS011;44037;55.638;37.356;2023-08-17T12:06:56;6.45;;;4.15;;
58238;SDS011;44037;55.638;37.356;2023-08-17T12:09:23;6.97;;;4.15;;
58238;SDS011;44037;55.638;37.356;2023-08-17T12:11:54;7.47;;;4.22;;
58238;SDS011;44037;55.638;37.356;2023-08-17T12:14:26;7.47;;;4.10;;
58238;SDS011;44037;55.638;37.356;2023-08-17T12:16:54;4.70;;;4.03;;
58238;SDS011;44037;55.638;37.356;2023-08-17T12:19:21;7.45;;;4.05;;
58238;SDS011;44037;55.638;37.356;2023-08-17T12:21:50;5.03;;;4.13;;
58238;SDS011;44037;55.638;37.356;2023-08-17T12:24:19;6.30;;;3.60;;
58238;SDS011;44037;55.638;37.356;2023-08-17T12:26:46;7.28;;;3.88;;
58238;SDS011;44037;55.638;37.356;2023-08-17T12:29:13;4.28;;;3.30;;
58238;SDS011;44037;55.638;37.356;2023-08-17T12:31:41;4.95;;;3.85;;
58238;SDS011;44037;55.638;37.356;2023-08-17T12:34:08;4.47;;;3.53;;
58238;SDS011;44037;55.638;37.356;2023-08-17T12:36:35;9.48;;;3.90;;
58238;SDS011;44037;55.638;37.356;2023-08-17T12:39:03;5.47;;;3.58;;
58238;SDS011;44037;55.638;37.356;2023-08-17T12:41:32;5.90;;;3.50;;
58238;SDS011;44037;55.638;37.356;2023-08-17T12:43:59;4.30;;;3.50;;
58238;SDS011;44037;55.638;37.356;2023-08-17T12:46:27;6.93;;;3.42;;
58238;SDS011;44037;55.638;37.356;2023-08-17T12:48:58;4.22;;;3.30;;
58238;SDS011;44037;55.638;37.356;2023-08-17T12:51:25;4.65;;;3.88;;
58238;SDS011;44037;55.638;37.356;2023-08-17T12:53:52;5.60;;;3.40;;
58238;SDS011;44037;55.638;37.356;2023-08-17T12:56:19;5.72;;;3.63;;
58238;SDS011;44037;55.638;37.356;2023-08-17T12:58:47;5.97;;;3.50;;
58238;SDS011;44037;55.638;37.356;2023-08-17T13:01:14;3.63;;;3.33;;
58238;SDS011;44037;55.638;37.356;2023-08-17T13:03:41;5.13;;;3.47;;
58238;SDS011;44037;55.638;37.356;2023-08-17T13:06:08;4.63;;;4.03;;
58238;SDS011;44037;55.638;37.356;2023-08-17T13:08:35;6.28;;;3.40;;
58238;SDS011;44037;55.638;37.356;2023-08-17T13:11:02;5.45;;;4.22;;
58238;SDS011;44037;55.638;37.356;2023-08-17T13:13:29;5.57;;;3.78;;
58238;SDS011;44037;55.638;37.356;2023-08-17T13:15:57;4.82;;;3.40;;
58238;SDS011;44037;55.638;37.356;2023-08-17T13:18:24;8.05;;;3.63;;
58238;SDS011;44037;55.638;37.356;2023-08-17T13:20:51;82.90;;;67.25;;
58238;SDS011;44037;55.638;37.356;2023-08-17T13:23:18;5.22;;;3.75;;
58238;SDS011;44037;55.638;37.356;2023-08-17T13:25:45;4.70;;;3.30;;
58238;SDS011;44037;55.638;37.356;2023-08-17T13:28:12;5.60;;;3.83;;
58238;SDS011;44037;55.638;37.356;2023-08-17T13:30:39;6.85;;;3.40;;
58238;SDS011;44037;55.638;37.356;2023-08-17T13:33:08;5.90;;;3.47;;
58238;SDS011;44037;55.638;37.356;2023-08-17T13:35:35;4.55;;;3.40;;
58238;SDS011;44037;55.638;37.356;2023-08-17T13:38:02;5.43;;;3.88;;
58238;SDS011;44037;55.638;37.356;2023-08-17T13:40:29;5.03;;;3.72;;
58238;SDS011;44037;55.638;37.356;2023-08-17T13:42:56;6.18;;;3.92;;
58238;SDS011;44037;55.638;37.356;2023-08-17T13:45:25;5.38;;;3.80;;
58238;SDS011;44037;55.638;37.356;2023-08-17T13:47:52;6.10;;;3.53;;
58238;SDS011;44037;55.638;37.356;2023-08-17T13:50:21;8.18;;;4.22;;
58238;SDS011;44037;55.638;37.356;2023-08-17T13:52:48;7.63;;;3.83;;
58238;SDS011;44037;55.638;37.356;2023-08-17T13:55:15;4.85;;;3.38;;
58238;SDS011;44037;55.638;37.356;2023-08-17T13:57:42;5.38;;;3.92;;
58238;SDS011;44037;55.638;37.356;2023-08-17T14:00:10;6.03;;;3.63;;
58238;SDS011;44037;55.638;37.356;2023-08-17T14:02:38;9.00;;;3.78;;
58238;SDS011;44037;55.638;37.356;2023-08-17T14:05:05;6.10;;;4.38;;
58238;SDS011;44037;55.638;37.356;2023-08-17T14:07:34;6.35;;;4.15;;
58238;SDS011;44037;55.638;37.356;2023-08-17T14:10:01;9.02;;;3.30;;
58238;SDS011;44037;55.638;37.356;2023-08-17T14:12:30;7.32;;;3.92;;
58238;SDS011;44037;55.638;37.356;2023-08-17T14:14:57;28.00;;;22.75;;
58238;SDS011;44037;55.638;37.356;2023-08-17T14:17:24;5.85;;;3.42;;
58238;SDS011;44037;55.638;37.356;2023-08-17T14:19:51;5.20;;;3.40;;
58238;SDS011;44037;55.638;37.356;2023-08-17T14:22:18;6.65;;;3.20;;
58238;SDS011;44037;55.638;37.356;2023-08-17T14:24:46;4.80;;;3.17;;
58238;SDS011;44037;55.638;37.356;2023-08-17T14:27:13;5.13;;;3.92;;